createdAt,value
2023-05-10T00:01:32.518Z,93.73
2023-05-10T00:03:59.387Z,92.79
2023-05-10T00:06:26.207Z,93.54
2023-05-10T00:08:52.827Z,94.10
2023-05-10T00:11:21.636Z,94.51
2023-05-10T00:13:49.711Z,93.06
2023-05-10T00:16:16.558Z,92.43
2023-05-10T00:18:43.360Z,91.87
2023-05-10T00:21:10.013Z,90.99
2023-05-10T00:23:36.692Z,91.19
2023-05-10T00:26:03.327Z,91.72
2023-05-10T00:28:30.402Z,92.51
2023-05-10T00:30:57.161Z,92.54
2023-05-10T00:33:24.015Z,92.73
2023-05-10T00:35:51.129Z,92.30
2023-05-10T00:38:17.845Z,91.02
2023-05-10T00:40:45.001Z,91.43
2023-05-10T00:43:19.387Z,91.05
2023-05-10T00:45:48.130Z,91.56
2023-05-10T00:48:14.946Z,91.95
2023-05-10T00:50:41.945Z,92.15
2023-05-10T00:53:09.877Z,90.80
2023-05-10T00:55:36.819Z,91.25
2023-05-10T00:58:03.680Z,88.44
2023-05-10T01:00:30.824Z,88.72
2023-05-10T01:02:57.718Z,88.86
2023-05-10T01:05:24.683Z,88.49
2023-05-10T01:07:52.192Z,88.99
2023-05-10T01:10:19.516Z,89.19
2023-05-10T01:12:48.141Z,89.90
2023-05-10T01:15:17.061Z,90.76
2023-05-10T01:17:47.646Z,89.35
2023-05-10T01:20:16.610Z,88.93
2023-05-10T01:22:51.181Z,88.15
2023-05-10T01:25:56.910Z,88.80
2023-05-10T01:28:38.591Z,89.11
2023-05-10T01:31:24.813Z,89.62
2023-05-10T01:34:01.953Z,90.06
2023-05-10T01:36:34.814Z,90.15
2023-05-10T01:39:22.012Z,89.34
2023-05-10T01:42:09.010Z,88.81
2023-05-10T01:44:41.233Z,90.03
2023-05-10T01:47:25.255Z,90.09
2023-05-10T01:49:55.494Z,88.99
2023-05-10T01:52:33.921Z,87.26
2023-05-10T01:55:05.691Z,87.73
2023-05-10T01:57:38.040Z,88.79
2023-05-10T02:00:06.245Z,88.24
2023-05-10T02:02:46.233Z,88.29
2023-05-10T02:05:15.431Z,88.08
2023-05-10T02:07:44.183Z,89.16
2023-05-10T02:10:12.926Z,90.01
2023-05-10T02:12:48.579Z,90.11
2023-05-10T02:15:21.918Z,90.24
2023-05-10T02:17:49.560Z,91.39
2023-05-10T02:20:17.747Z,91.36
2023-05-10T02:22:48.082Z,89.34
2023-05-10T02:25:15.494Z,88.79
2023-05-10T02:27:44.704Z,89.38
2023-05-10T02:30:12.724Z,89.51
2023-05-10T02:32:40.126Z,88.36
2023-05-10T02:35:08.286Z,87.87
2023-05-10T02:37:37.737Z,89.03
2023-05-10T02:40:06.794Z,89.56
2023-05-10T02:42:36.738Z,89.39
2023-05-10T02:45:12.070Z,88.71
2023-05-10T02:47:39.337Z,89.22
2023-05-10T02:50:06.609Z,89.28
2023-05-10T02:53:00.181Z,89.94
2023-05-10T02:55:33.393Z,89.39
2023-05-10T02:58:01.998Z,89.62
2023-05-10T03:00:29.449Z,90.39
2023-05-10T03:02:56.279Z,91.17
2023-05-10T03:05:23.418Z,90.46
2023-05-10T03:07:51.890Z,89.11
2023-05-10T03:10:19.867Z,90.02
2023-05-10T03:12:54.185Z,89.28
2023-05-10T03:15:30.134Z,90.58
2023-05-10T03:18:06.498Z,91.15
2023-05-10T03:20:40.251Z,90.18
2023-05-10T03:23:14.593Z,90.12
2023-05-10T03:25:44.683Z,91.09
2023-05-10T03:28:13.155Z,92.25
2023-05-10T03:30:41.563Z,90.54
2023-05-10T03:33:11.748Z,90.61
2023-05-10T03:35:41.765Z,91.52
2023-05-10T03:38:08.532Z,90.70
2023-05-10T03:40:35.420Z,90.30
2023-05-10T03:43:02.311Z,90.92
2023-05-10T03:45:29.182Z,90.61
2023-05-10T03:47:56.392Z,90.16
2023-05-10T03:50:23.253Z,90.38
2023-05-10T03:52:50.056Z,91.34
2023-05-10T03:55:17.955Z,91.57
2023-05-10T03:57:45.258Z,91.72
2023-05-10T04:00:12.361Z,91.72
2023-05-10T04:02:42.327Z,90.50
2023-05-10T04:05:13.532Z,90.31
2023-05-10T04:07:40.404Z,90.43
2023-05-10T04:10:07.983Z,91.26
2023-05-10T04:12:34.689Z,92.02
2023-05-10T04:15:01.351Z,90.96
2023-05-10T04:17:28.186Z,90.68
2023-05-10T04:19:55.843Z,90.07
2023-05-10T04:22:22.646Z,90.23
2023-05-10T04:24:49.244Z,90.17
2023-05-10T04:27:15.958Z,90.57
2023-05-10T04:29:42.767Z,90.17
2023-05-10T04:32:11.108Z,90.34
2023-05-10T04:34:38.349Z,90.51
2023-05-10T04:37:05.284Z,89.71
2023-05-10T04:39:32.055Z,90.29
2023-05-10T04:41:58.835Z,90.54
2023-05-10T04:44:25.532Z,91.02
2023-05-10T04:46:52.135Z,91.06
2023-05-10T04:49:19.051Z,91.37
2023-05-10T04:51:45.714Z,91.31
2023-05-10T04:54:12.342Z,92.04
2023-05-10T04:56:39.053Z,91.25
2023-05-10T04:59:05.722Z,91.15
2023-05-10T05:01:32.605Z,90.75
2023-05-10T05:03:59.584Z,91.01
2023-05-10T05:06:28.239Z,90.68
2023-05-10T05:08:54.943Z,90.68
2023-05-10T05:11:22.147Z,90.65
2023-05-10T05:13:48.744Z,91.64
2023-05-10T05:16:15.606Z,91.94
2023-05-10T05:18:42.362Z,92.47
2023-05-10T05:21:19.436Z,91.88
2023-05-10T05:23:46.596Z,92.34
2023-05-10T05:26:13.277Z,91.79
2023-05-10T05:28:39.950Z,92.58
2023-05-10T05:31:06.951Z,93.11
2023-05-10T05:33:33.903Z,93.29
2023-05-10T05:36:05.582Z,94.06
2023-05-10T05:38:32.734Z,94.24
2023-05-10T05:40:59.410Z,93.64
2023-05-10T05:43:26.150Z,92.14
2023-05-10T05:45:57.025Z,93.50
2023-05-10T05:48:23.761Z,91.75
2023-05-10T05:50:50.415Z,93.15
2023-05-10T05:53:17.126Z,92.98
2023-05-10T05:55:57.310Z,93.46
2023-05-10T05:58:24.548Z,93.82
2023-05-10T06:00:52.925Z,93.66
2023-05-10T06:03:20.773Z,93.02
2023-05-10T06:05:47.803Z,91.35
2023-05-10T06:08:14.515Z,89.91
2023-05-10T06:10:41.148Z,90.62
2023-05-10T06:13:08.119Z,91.23
2023-05-10T06:15:35.561Z,91.73
2023-05-10T06:18:02.600Z,91.22
2023-05-10T06:20:29.380Z,90.86
2023-05-10T06:22:56.061Z,90.86
2023-05-10T06:25:22.676Z,91.50
2023-05-10T06:27:52.899Z,91.94
2023-05-10T06:30:21.136Z,91.16
2023-05-10T06:32:48.148Z,92.52
2023-05-10T06:35:15.074Z,91.56
2023-05-10T06:37:41.933Z,91.33
2023-05-10T06:40:09.077Z,90.81
2023-05-10T06:42:35.738Z,90.95
2023-05-10T06:45:03.466Z,92.30
2023-05-10T06:47:30.252Z,91.70
2023-05-10T06:49:57.148Z,91.80
2023-05-10T06:52:24.328Z,89.90
2023-05-10T06:54:51.073Z,90.13
2023-05-10T06:57:30.657Z,89.75
2023-05-10T07:00:02.540Z,89.46
2023-05-10T07:02:29.555Z,90.65
2023-05-10T07:04:56.465Z,91.13
2023-05-10T07:07:23.212Z,90.43
2023-05-10T07:09:51.046Z,91.42
2023-05-10T07:12:18.403Z,92.22
2023-05-10T07:14:45.387Z,91.89
2023-05-10T07:17:12.281Z,89.99
2023-05-10T07:19:38.950Z,91.53
2023-05-10T07:22:05.675Z,90.86
2023-05-10T07:24:34.079Z,92.70
2023-05-10T07:27:00.915Z,91.12
2023-05-10T07:29:27.643Z,91.73
2023-05-10T07:31:55.376Z,92.07
2023-05-10T07:34:23.764Z,91.41
2023-05-10T07:36:50.504Z,92.04
2023-05-10T07:39:26.733Z,92.16
2023-05-10T07:41:55.862Z,91.87
2023-05-10T07:44:22.784Z,92.65
2023-05-10T07:46:49.647Z,89.97
2023-05-10T07:49:16.321Z,89.81
2023-05-10T07:51:43.647Z,91.11
2023-05-10T07:54:10.513Z,90.04
2023-05-10T07:56:37.317Z,91.40
2023-05-10T07:59:06.163Z,91.34
2023-05-10T08:01:34.353Z,91.64
2023-05-10T08:04:02.868Z,91.69
2023-05-10T08:06:31.033Z,93.29
2023-05-10T08:08:58.165Z,93.74
2023-05-10T08:11:24.833Z,90.52
2023-05-10T08:13:52.260Z,91.47
2023-05-10T08:16:19.224Z,92.29
2023-05-10T08:18:47.749Z,92.37
2023-05-10T08:21:15.663Z,92.94
2023-05-10T08:23:44.618Z,90.07
2023-05-10T08:26:11.775Z,90.66
2023-05-10T08:28:38.483Z,90.48
2023-05-10T08:31:06.294Z,91.87
2023-05-10T08:33:33.056Z,90.90
2023-05-10T08:35:59.835Z,90.89
2023-05-10T08:38:26.968Z,91.87
2023-05-10T08:40:57.637Z,91.71
2023-05-10T08:43:28.769Z,91.22
2023-05-10T08:45:57.442Z,93.32
2023-05-10T08:48:26.016Z,91.16
2023-05-10T08:50:58.732Z,91.75
2023-05-10T08:53:28.143Z,88.79
2023-05-10T08:55:55.454Z,90.50
2023-05-10T08:58:22.305Z,90.30
2023-05-10T09:00:51.922Z,92.00
2023-05-10T09:03:18.835Z,87.70
2023-05-10T09:05:46.306Z,88.73
2023-05-10T09:08:13.962Z,87.59
2023-05-10T09:10:41.285Z,86.14
2023-05-10T09:13:10.061Z,88.16
2023-05-10T09:15:36.773Z,89.98
2023-05-10T09:18:03.769Z,90.21
2023-05-10T09:20:30.565Z,90.50
2023-05-10T09:22:57.132Z,89.85
2023-05-10T09:25:23.900Z,90.06
2023-05-10T09:27:50.844Z,89.50
2023-05-10T09:30:25.890Z,89.66
2023-05-10T09:32:53.517Z,89.21
2023-05-10T09:35:22.408Z,88.31
2023-05-10T09:37:51.369Z,88.60
2023-05-10T09:40:19.866Z,88.24
2023-05-10T09:42:56.324Z,89.27
2023-05-10T09:45:25.107Z,88.74
2023-05-10T09:47:52.081Z,86.25
2023-05-10T09:50:20.469Z,86.16
2023-05-10T09:52:59.357Z,87.40
2023-05-10T09:55:47.526Z,88.50
2023-05-10T09:58:15.235Z,86.55
2023-05-10T10:00:44.337Z,86.89
2023-05-10T10:03:20.561Z,86.54
2023-05-10T10:05:48.509Z,86.92
2023-05-10T10:08:16.283Z,88.36
2023-05-10T10:10:46.323Z,87.21
2023-05-10T10:13:13.865Z,87.74
2023-05-10T10:15:40.909Z,87.37
2023-05-10T10:18:12.182Z,85.75
2023-05-10T10:20:38.936Z,84.77
2023-05-10T10:23:05.787Z,86.00
2023-05-10T10:25:32.861Z,84.88
2023-05-10T10:28:13.418Z,84.59
2023-05-10T10:30:47.031Z,85.46
2023-05-10T10:33:37.358Z,83.94
2023-05-10T10:36:05.194Z,84.98
2023-05-10T10:39:01.770Z,84.87
2023-05-10T10:41:34.818Z,85.37
2023-05-10T10:44:32.406Z,84.15
2023-05-10T10:47:25.931Z,84.78
2023-05-10T10:50:02.059Z,84.53
2023-05-10T10:52:34.362Z,85.32
2023-05-10T10:55:07.577Z,84.84
2023-05-10T10:57:50.776Z,84.29
2023-05-10T11:00:23.982Z,84.96
2023-05-10T11:03:14.420Z,84.19
2023-05-10T11:05:45.652Z,85.14
2023-05-10T11:08:17.898Z,85.36
2023-05-10T11:10:55.406Z,83.94
2023-05-10T11:13:47.709Z,84.40
2023-05-10T11:16:20.857Z,86.30
2023-05-10T11:19:09.289Z,86.28
2023-05-10T11:21:50.081Z,82.43
2023-05-10T11:24:19.951Z,80.52
2023-05-10T11:26:46.990Z,82.40
2023-05-10T11:29:14.675Z,84.93
2023-05-10T11:31:49.343Z,81.07
2023-05-10T11:34:31.195Z,81.64
2023-05-10T11:36:58.929Z,83.33
2023-05-10T11:39:30.861Z,84.06
2023-05-10T11:41:58.642Z,82.00
2023-05-10T11:44:32.917Z,80.58
2023-05-10T11:47:02.801Z,81.79
2023-05-10T11:49:29.668Z,81.27
2023-05-10T11:52:07.304Z,79.20
2023-05-10T11:54:35.853Z,81.61
2023-05-10T11:57:02.598Z,79.27
2023-05-10T11:59:29.313Z,78.17
2023-05-10T12:01:56.292Z,82.25
2023-05-10T12:04:23.273Z,81.33
2023-05-10T12:06:50.124Z,78.90
2023-05-10T12:09:19.267Z,80.53
2023-05-10T12:11:49.936Z,82.30
2023-05-10T12:14:16.700Z,80.12
2023-05-10T12:16:44.415Z,74.56
2023-05-10T12:19:11.944Z,75.27
2023-05-10T12:21:39.936Z,77.63
2023-05-10T12:24:07.288Z,75.86
2023-05-10T12:26:34.173Z,79.86
2023-05-10T12:29:15.177Z,73.70
2023-05-10T12:31:53.216Z,78.71
2023-05-10T12:34:26.967Z,76.87
2023-05-10T12:36:55.268Z,72.57
2023-05-10T12:39:22.315Z,72.21
2023-05-10T12:41:48.998Z,73.78
2023-05-10T12:44:15.962Z,78.27
2023-05-10T12:46:42.563Z,77.99
2023-05-10T12:49:09.880Z,77.91
2023-05-10T12:51:36.828Z,74.92
2023-05-10T12:54:04.573Z,77.26
2023-05-10T12:56:31.193Z,77.64
2023-05-10T12:58:57.771Z,77.50
2023-05-10T13:01:24.518Z,79.22
2023-05-10T13:03:51.527Z,79.00
2023-05-10T13:06:18.252Z,79.55
2023-05-10T13:08:44.879Z,77.61
2023-05-10T13:11:11.620Z,77.28
2023-05-10T13:13:38.306Z,76.25
2023-05-10T13:16:05.422Z,76.74
2023-05-10T13:18:32.137Z,74.03
2023-05-10T13:20:59.022Z,77.04
2023-05-10T13:23:25.728Z,75.37
2023-05-10T13:25:52.410Z,76.64
2023-05-10T13:28:19.041Z,74.03
2023-05-10T13:30:45.787Z,74.46
2023-05-10T13:33:12.445Z,75.54
2023-05-10T13:35:39.340Z,70.50
2023-05-10T13:38:08.888Z,71.27
2023-05-10T13:40:36.810Z,72.55
2023-05-10T13:43:03.489Z,69.90
2023-05-10T13:45:30.220Z,72.84
2023-05-10T13:47:56.883Z,74.22
2023-05-10T13:50:23.842Z,74.53
2023-05-10T13:52:50.806Z,73.32
2023-05-10T13:55:17.727Z,72.71
2023-05-10T13:57:44.568Z,72.03
2023-05-10T14:00:11.755Z,71.76
2023-05-10T14:02:38.357Z,73.06
2023-05-10T14:05:05.493Z,74.06
2023-05-10T14:07:32.126Z,74.73
2023-05-10T14:09:58.807Z,74.44
2023-05-10T14:12:25.440Z,73.75
2023-05-10T14:14:52.142Z,72.97
2023-05-10T14:17:18.878Z,72.61
2023-05-10T14:19:45.604Z,74.38
2023-05-10T14:22:12.320Z,73.58
2023-05-10T14:24:39.362Z,73.64
2023-05-10T14:27:07.040Z,71.66
2023-05-10T14:29:33.921Z,73.50
2023-05-10T14:32:00.701Z,74.31
2023-05-10T14:34:27.529Z,74.21
2023-05-10T14:36:54.109Z,72.88
2023-05-10T14:39:20.780Z,73.95
2023-05-10T14:41:48.195Z,73.16
2023-05-10T14:44:16.346Z,74.03
2023-05-10T14:46:43.036Z,75.30
2023-05-10T14:49:09.723Z,74.04
2023-05-10T14:51:37.790Z,73.61
2023-05-10T14:54:04.549Z,75.25
2023-05-10T14:56:31.197Z,73.77
2023-05-10T14:58:58.113Z,73.62
2023-05-10T15:01:25.427Z,74.28
2023-05-10T15:03:52.826Z,74.89
2023-05-10T15:06:25.855Z,74.53
2023-05-10T15:08:52.682Z,72.93
2023-05-10T15:11:19.549Z,73.05
2023-05-10T15:13:46.323Z,73.28
2023-05-10T15:16:13.151Z,73.72
2023-05-10T15:18:39.931Z,74.21
2023-05-10T15:21:06.578Z,73.67
2023-05-10T15:23:33.657Z,74.49
2023-05-10T15:26:01.318Z,72.58
2023-05-10T15:28:27.997Z,73.43
2023-05-10T15:30:54.870Z,74.98
2023-05-10T15:33:21.678Z,73.07
2023-05-10T15:35:48.528Z,73.65
2023-05-10T15:38:15.896Z,73.54
2023-05-10T15:40:42.493Z,75.07
2023-05-10T15:43:09.218Z,73.75
2023-05-10T15:45:37.645Z,73.54
2023-05-10T15:48:04.834Z,73.71
2023-05-10T15:50:31.446Z,73.78
2023-05-10T15:52:58.170Z,73.35
2023-05-10T15:55:24.836Z,73.76
2023-05-10T15:57:51.717Z,74.16
2023-05-10T16:00:19.063Z,73.21
2023-05-10T16:02:45.737Z,73.61
2023-05-10T16:05:13.813Z,74.62
2023-05-10T16:07:42.112Z,74.79
2023-05-10T16:10:10.586Z,75.46
2023-05-10T16:12:37.861Z,76.17
2023-05-10T16:15:05.107Z,76.25
2023-05-10T16:17:32.216Z,75.80
2023-05-10T16:19:58.926Z,75.39
2023-05-10T16:22:29.867Z,75.83
2023-05-10T16:24:57.441Z,76.81
2023-05-10T16:27:24.323Z,78.47
2023-05-10T16:29:51.196Z,77.15
2023-05-10T16:32:17.901Z,77.71
2023-05-10T16:34:44.771Z,78.37
2023-05-10T16:37:11.531Z,78.61
2023-05-10T16:39:38.459Z,78.06
2023-05-10T16:42:05.111Z,78.87
2023-05-10T16:44:31.851Z,78.66
2023-05-10T16:46:58.463Z,78.22
2023-05-10T16:49:26.193Z,78.95
2023-05-10T16:51:53.031Z,78.08
2023-05-10T16:54:21.381Z,78.05
2023-05-10T16:56:48.044Z,77.66
2023-05-10T16:59:14.748Z,78.64
2023-05-10T17:01:41.602Z,79.04
2023-05-10T17:04:08.465Z,78.75
2023-05-10T17:06:36.771Z,78.56
2023-05-10T17:09:10.472Z,78.06
2023-05-10T17:11:40.917Z,77.79
2023-05-10T17:14:09.607Z,77.97
2023-05-10T17:16:36.396Z,77.77
2023-05-10T17:19:03.521Z,77.73
2023-05-10T17:21:30.292Z,78.09
2023-05-10T17:23:57.076Z,79.18
2023-05-10T17:26:23.878Z,78.69
2023-05-10T17:28:52.549Z,78.58
2023-05-10T17:31:19.255Z,78.78
2023-05-10T17:33:46.440Z,78.08
2023-05-10T17:36:13.077Z,78.71
2023-05-10T17:38:39.796Z,78.79
2023-05-10T17:41:06.600Z,79.18
2023-05-10T17:43:33.313Z,79.53
2023-05-10T17:46:00.019Z,79.63
2023-05-10T17:48:26.761Z,79.71
2023-05-10T17:50:53.432Z,79.58
2023-05-10T17:53:20.081Z,79.53
2023-05-10T17:55:47.060Z,79.17
2023-05-10T17:58:14.181Z,79.16
2023-05-10T18:00:40.884Z,78.52
2023-05-10T18:03:07.700Z,79.57
2023-05-10T18:05:38.751Z,80.49
2023-05-10T18:08:05.902Z,80.04
2023-05-10T18:10:32.578Z,79.17
2023-05-10T18:12:59.432Z,78.58
2023-05-10T18:15:27.686Z,78.71
2023-05-10T18:17:55.908Z,77.54
2023-05-10T18:20:23.048Z,76.66
2023-05-10T18:22:49.927Z,77.28
2023-05-10T18:25:17.036Z,75.53
2023-05-10T18:27:44.357Z,75.99
2023-05-10T18:30:12.420Z,76.47
2023-05-10T18:32:39.732Z,76.68
2023-05-10T18:35:08.034Z,77.62
2023-05-10T18:37:35.585Z,77.42
2023-05-10T18:40:02.528Z,77.44
2023-05-10T18:42:29.245Z,76.74
2023-05-10T18:44:56.063Z,77.35
2023-05-10T18:47:23.445Z,77.88
2023-05-10T18:49:50.099Z,77.61
2023-05-10T18:52:16.923Z,77.59
2023-05-10T18:54:43.522Z,77.84
2023-05-10T18:57:10.189Z,77.78
2023-05-10T18:59:36.745Z,77.29
2023-05-10T19:02:03.552Z,75.10
2023-05-10T19:04:30.474Z,75.10
2023-05-10T19:06:57.305Z,74.69
2023-05-10T19:09:24.258Z,74.60
2023-05-10T19:11:51.446Z,74.62
2023-05-10T19:14:18.172Z,72.53
2023-05-10T19:16:44.892Z,73.68
2023-05-10T19:19:12.006Z,73.06
2023-05-10T19:21:39.211Z,73.24
2023-05-10T19:24:06.207Z,73.01
2023-05-10T19:26:32.926Z,73.34
2023-05-10T19:29:00.669Z,73.42
2023-05-10T19:31:27.690Z,73.38
2023-05-10T19:33:54.371Z,72.96
2023-05-10T19:36:21.242Z,73.72
2023-05-10T19:38:48.931Z,72.63
2023-05-10T19:41:15.707Z,71.63
2023-05-10T19:43:42.348Z,71.72
2023-05-10T19:46:09.809Z,71.91
2023-05-10T19:48:36.631Z,72.31
2023-05-10T19:51:07.684Z,73.42
2023-05-10T19:53:36.154Z,73.34
2023-05-10T19:56:04.449Z,73.81
2023-05-10T19:58:31.221Z,74.23
2023-05-10T20:00:58.022Z,74.25
2023-05-10T20:03:24.897Z,73.35
2023-05-10T20:05:51.628Z,73.79
2023-05-10T20:08:18.601Z,72.99
2023-05-10T20:10:45.142Z,73.16
2023-05-10T20:13:11.823Z,73.98
2023-05-10T20:15:38.472Z,74.08
2023-05-10T20:18:05.416Z,73.69
2023-05-10T20:20:32.147Z,73.62
2023-05-10T20:22:59.020Z,73.27
2023-05-10T20:25:25.913Z,73.47
2023-05-10T20:27:52.941Z,74.20
2023-05-10T20:30:20.078Z,74.27
2023-05-10T20:32:47.307Z,74.69
2023-05-10T20:35:14.089Z,74.83
2023-05-10T20:37:40.867Z,75.00
2023-05-10T20:40:08.533Z,75.01
2023-05-10T20:42:35.152Z,74.74
2023-05-10T20:45:01.929Z,74.45
2023-05-10T20:47:28.892Z,74.81
2023-05-10T20:49:55.664Z,75.21
2023-05-10T20:52:24.437Z,75.30
2023-05-10T20:54:51.251Z,75.38
2023-05-10T20:57:18.009Z,76.00
2023-05-10T20:59:44.639Z,76.58
2023-05-10T21:02:11.325Z,76.33
2023-05-10T21:04:37.976Z,75.94
2023-05-10T21:07:04.691Z,75.89
2023-05-10T21:09:31.335Z,76.91
2023-05-10T21:11:58.248Z,76.86
2023-05-10T21:14:24.912Z,76.55
2023-05-10T21:16:51.699Z,76.90
2023-05-10T21:19:18.335Z,76.82
2023-05-10T21:21:45.092Z,77.31
2023-05-10T21:24:12.395Z,77.97
2023-05-10T21:26:39.218Z,78.27
2023-05-10T21:29:06.315Z,78.29
2023-05-10T21:31:33.569Z,78.18
2023-05-10T21:34:00.233Z,78.08
2023-05-10T21:36:27.092Z,78.79
2023-05-10T21:38:53.740Z,78.57
2023-05-10T21:41:20.529Z,78.92
2023-05-10T21:43:47.201Z,78.84
2023-05-10T21:46:14.317Z,79.62
2023-05-10T21:48:41.241Z,79.84
2023-05-10T21:51:08.256Z,79.71
2023-05-10T21:53:36.665Z,79.87
2023-05-10T21:56:03.416Z,80.33
2023-05-10T21:58:30.070Z,79.92
2023-05-10T22:00:57.188Z,79.88
2023-05-10T22:03:24.011Z,79.25
2023-05-10T22:05:50.886Z,79.38
2023-05-10T22:08:17.518Z,79.59
2023-05-10T22:10:44.190Z,78.64
2023-05-10T22:13:11.046Z,78.74
2023-05-10T22:15:37.892Z,79.12
2023-05-10T22:18:04.657Z,78.93
2023-05-10T22:20:31.641Z,79.11
2023-05-10T22:22:58.336Z,78.97
2023-05-10T22:25:25.050Z,78.24
2023-05-10T22:27:52.219Z,78.28
2023-05-10T22:30:19.883Z,78.46
2023-05-10T22:32:47.203Z,78.23
2023-05-10T22:35:13.997Z,78.40
2023-05-10T22:37:40.607Z,78.38
2023-05-10T22:40:07.860Z,79.03
2023-05-10T22:42:34.524Z,78.47
2023-05-10T22:45:01.288Z,78.35
2023-05-10T22:47:27.966Z,78.92
2023-05-10T22:49:55.604Z,78.71
2023-05-10T22:52:22.267Z,78.96
2023-05-10T22:54:49.165Z,79.15
2023-05-10T22:57:16.426Z,79.43
2023-05-10T22:59:43.376Z,79.06
2023-05-10T23:02:10.195Z,78.51
2023-05-10T23:04:37.049Z,78.60
2023-05-10T23:07:03.757Z,79.22
2023-05-10T23:09:30.410Z,79.37
2023-05-10T23:11:57.438Z,78.86
2023-05-10T23:14:24.206Z,78.84
2023-05-10T23:16:50.966Z,79.22
2023-05-10T23:19:17.644Z,80.25
2023-05-10T23:21:44.191Z,79.99
2023-05-10T23:24:11.680Z,79.15
2023-05-10T23:26:38.397Z,78.70
2023-05-10T23:29:05.087Z,78.92
2023-05-10T23:31:31.787Z,78.87
2023-05-10T23:33:58.677Z,78.95
2023-05-10T23:36:25.252Z,79.36
2023-05-10T23:38:51.927Z,79.77
2023-05-10T23:41:18.912Z,79.96
2023-05-10T23:43:45.617Z,81.08
2023-05-10T23:46:12.300Z,81.07
2023-05-10T23:48:39.031Z,81.58
2023-05-10T23:51:05.714Z,81.45
2023-05-10T23:53:32.437Z,81.77
2023-05-10T23:55:59.093Z,80.43
2023-05-10T23:58:25.878Z,80.18
